Time;durP1;ratioP1;P1;durP2;ratioP2;P2;SDS_P1;SDS_P2;PMS_P1;PMS_P2;Temp;Humidity;BMP_temperature;BMP_pressure;BME280_temperature;BME280_humidity;BME280_pressure;Samples;Min_cycle;Max_cycle;Signal;HPM_P1;HPM_P2
2023/09/24 00:01:28;;;;;;;9.23;4.22;;;;;;;;;;5040593;28;20383;-69
2023/09/24 00:05:08;;;;;;;11.77;4.28;;;;;;;;;;5040444;28;20265;-71
2023/09/24 00:08:49;;;;;;;8.95;3.85;;;;;;;;;;5049322;28;20049;-70
2023/09/24 00:12:29;;;;;;;11.65;3.95;;;;;;;;;;5038388;28;20059;-70
2023/09/24 00:16:11;;;;;;;11.25;3.53;;;;;;;;;;5050440;28;20515;-71
2023/09/24 00:19:50;;;;;;;9.90;3.28;;;;;;;;;;5042970;28;20128;-70
2023/09/24 00:23:30;;;;;;;9.38;2.65;;;;;;;;;;5045750;28;20071;-71
2023/09/24 00:27:10;;;;;;;4.88;2.78;;;;;;;;;;5045763;28;20106;-70
2023/09/24 00:30:51;;;;;;;6.57;2.10;;;;;;;;;;5035689;28;20114;-71
2023/09/24 00:34:31;;;;;;;5.25;2.20;;;;;;;;;;5047032;28;20095;-69
2023/09/24 00:38:14;;;;;;;8.80;2.40;;;;;;;;;;5035745;28;20045;-71
2023/09/24 00:41:55;;;;;;;6.30;2.38;;;;;;;;;;5035579;28;20405;-71
2023/09/24 00:45:35;;;;;;;4.20;1.98;;;;;;;;;;5036235;28;20045;-70
2023/09/24 00:49:15;;;;;;;5.65;2.00;;;;;;;;;;5044474;28;20045;-72
2023/09/24 00:52:56;;;;;;;5.13;1.90;;;;;;;;;;5040239;28;20041;-69
2023/09/24 00:56:36;;;;;;;7.15;1.95;;;;;;;;;;5042072;28;20053;-70
2023/09/24 01:00:17;;;;;;;5.82;2.20;;;;;;;;;;5048191;28;20115;-71
2023/09/24 01:03:57;;;;;;;9.88;2.40;;;;;;;;;;5044109;28;20506;-70
2023/09/24 01:07:37;;;;;;;5.00;2.17;;;;;;;;;;5039558;28;20180;-70
2023/09/24 01:11:18;;;;;;;4.70;1.50;;;;;;;;;;5041242;28;20481;-71
2023/09/24 01:14:58;;;;;;;7.70;1.90;;;;;;;;;;5042980;28;20084;-69
2023/09/24 01:18:42;;;;;;;4.50;2.00;;;;;;;;;;5039553;28;20044;-70
2023/09/24 01:22:19;;;;;;;13.30;2.25;;;;;;;;;;5041005;28;20037;-72
2023/09/24 01:25:59;;;;;;;3.88;1.80;;;;;;;;;;5045331;28;20072;-68
2023/09/24 01:29:40;;;;;;;4.93;1.70;;;;;;;;;;5041773;28;20044;-70
2023/09/24 01:33:21;;;;;;;6.32;1.80;;;;;;;;;;5037330;28;20044;-68
2023/09/24 01:37:06;;;;;;;5.85;1.77;;;;;;;;;;5038683;28;20147;-70
2023/09/24 01:40:40;;;;;;;4.05;1.80;;;;;;;;;;5041766;28;20400;-70
2023/09/24 01:44:21;;;;;;;6.22;1.90;;;;;;;;;;5037319;28;20069;-69
2023/09/24 01:48:03;;;;;;;3.70;1.60;;;;;;;;;;5035303;28;20557;-70
2023/09/24 01:51:45;;;;;;;4.03;1.60;;;;;;;;;;5043609;28;20140;-70
2023/09/24 01:55:25;;;;;;;4.05;1.60;;;;;;;;;;5048085;28;20041;-68
2023/09/24 01:59:05;;;;;;;3.70;1.63;;;;;;;;;;5038016;28;20041;-70
2023/09/24 02:02:48;;;;;;;4.57;1.52;;;;;;;;;;5039393;28;20166;-69
2023/09/24 02:06:29;;;;;;;7.78;1.77;;;;;;;;;;5045212;28;20072;-69
2023/09/24 02:10:09;;;;;;;8.20;1.65;;;;;;;;;;5044841;28;20052;-69
2023/09/24 02:13:49;;;;;;;4.47;1.70;;;;;;;;;;5034614;28;20076;-69
2023/09/24 02:17:29;;;;;;;3.28;1.63;;;;;;;;;;5037030;28;20122;-67
2023/09/24 02:21:14;;;;;;;3.42;1.40;;;;;;;;;;5042069;28;20053;-70
2023/09/24 02:24:56;;;;;;;3.60;1.83;;;;;;;;;;5037230;28;20037;-69
2023/09/24 02:28:36;;;;;;;4.25;1.25;;;;;;;;;;5039319;28;20143;-69
2023/09/24 02:32:14;;;;;;;3.25;1.38;;;;;;;;;;5042498;28;21080;-69
2023/09/24 02:35:56;;;;;;;4.88;1.40;;;;;;;;;;5047267;28;20083;-69
2023/09/24 02:39:36;;;;;;;2.85;1.38;;;;;;;;;;5046946;28;20045;-71
2023/09/24 02:43:19;;;;;;;4.95;1.45;;;;;;;;;;5040566;28;20443;-69
2023/09/24 02:46:58;;;;;;;5.40;1.70;;;;;;;;;;5040690;28;20232;-70
2023/09/24 02:50:39;;;;;;;7.35;2.17;;;;;;;;;;5040999;28;20519;-69
2023/09/24 02:54:19;;;;;;;7.18;3.35;;;;;;;;;;5041930;28;20303;-69
2023/09/24 02:57:59;;;;;;;10.43;3.33;;;;;;;;;;5044589;28;20051;-69
2023/09/24 03:01:40;;;;;;;6.28;2.53;;;;;;;;;;5042580;28;20067;-68
2023/09/24 03:05:24;;;;;;;5.57;2.65;;;;;;;;;;5041436;28;20117;-70
2023/09/24 03:09:00;;;;;;;5.40;2.30;;;;;;;;;;5041461;28;20032;-71
2023/09/24 03:12:40;;;;;;;3.17;1.67;;;;;;;;;;5044298;28;20045;-70
2023/09/24 03:16:21;;;;;;;5.13;1.80;;;;;;;;;;5036508;28;20049;-68
2023/09/24 03:20:05;;;;;;;7.28;1.85;;;;;;;;;;5041824;28;20485;-69
2023/09/24 03:23:42;;;;;;;4.75;1.65;;;;;;;;;;5039861;28;20052;-69
2023/09/24 03:27:22;;;;;;;4.80;1.50;;;;;;;;;;5036879;28;20093;-69
2023/09/24 03:31:02;;;;;;;4.35;1.60;;;;;;;;;;5032972;28;20658;-69
2023/09/24 03:34:44;;;;;;;4.18;1.40;;;;;;;;;;5036864;28;20049;-68
2023/09/24 03:38:23;;;;;;;3.33;1.30;;;;;;;;;;5042472;28;20053;-71
2023/09/24 03:42:04;;;;;;;5.00;1.42;;;;;;;;;;5030445;28;20230;-71
2023/09/24 03:45:45;;;;;;;7.30;1.63;;;;;;;;;;5035172;28;20404;-71
2023/09/24 03:49:25;;;;;;;3.53;1.60;;;;;;;;;;5034613;28;20484;-69
2023/09/24 03:53:05;;;;;;;6.30;1.40;;;;;;;;;;5032305;28;20049;-68
2023/09/24 03:56:46;;;;;;;5.38;1.90;;;;;;;;;;5030568;28;20163;-69
2023/09/24 04:00:27;;;;;;;3.88;1.45;;;;;;;;;;5035108;28;20098;-69
2023/09/24 04:04:08;;;;;;;2.10;1.40;;;;;;;;;;5033418;28;20167;-69
2023/09/24 04:07:49;;;;;;;5.25;1.45;;;;;;;;;;5034767;28;20056;-70
2023/09/24 04:11:27;;;;;;;4.68;1.77;;;;;;;;;;5040171;28;20123;-70
2023/09/24 04:15:08;;;;;;;7.38;1.77;;;;;;;;;;5041309;28;20045;-69
2023/09/24 04:18:48;;;;;;;4.55;1.48;;;;;;;;;;5030098;28;20509;-69
2023/09/24 04:22:28;;;;;;;2.28;1.20;;;;;;;;;;5040891;28;20070;-69
2023/09/24 04:26:09;;;;;;;3.25;1.42;;;;;;;;;;5037203;28;20132;-71
2023/09/24 04:29:49;;;;;;;2.83;1.35;;;;;;;;;;5043004;28;20053;-69
2023/09/24 04:33:34;;;;;;;3.92;1.50;;;;;;;;;;5037641;28;20041;-69
2023/09/24 04:37:13;;;;;;;6.22;1.33;;;;;;;;;;5034971;28;20111;-69
2023/09/24 04:40:53;;;;;;;2.70;1.20;;;;;;;;;;5036411;28;20123;-69
2023/09/24 04:44:34;;;;;;;4.90;1.60;;;;;;;;;;5044413;28;20041;-69
2023/09/24 04:48:14;;;;;;;2.97;1.38;;;;;;;;;;5037037;28;20041;-70
2023/09/24 04:51:55;;;;;;;5.35;1.65;;;;;;;;;;5039301;28;20045;-70
2023/09/24 04:55:34;;;;;;;5.38;1.40;;;;;;;;;;5040733;28;20501;-69
2023/09/24 04:59:15;;;;;;;6.93;1.50;;;;;;;;;;5037583;28;20053;-69
2023/09/24 05:02:57;;;;;;;6.60;1.67;;;;;;;;;;5036349;28;20179;-69
2023/09/24 05:06:37;;;;;;;3.22;1.60;;;;;;;;;;5032267;28;20136;-68
2023/09/24 05:10:17;;;;;;;5.32;1.75;;;;;;;;;;5037768;28;20068;-70
2023/09/24 05:13:58;;;;;;;2.90;1.40;;;;;;;;;;5042410;28;20037;-69
2023/09/24 05:17:38;;;;;;;3.58;1.30;;;;;;;;;;5039553;28;20444;-69
2023/09/24 05:21:18;;;;;;;5.47;1.85;;;;;;;;;;5035179;28;20051;-69
2023/09/24 05:24:59;;;;;;;4.85;1.45;;;;;;;;;;5045966;28;20032;-70
2023/09/24 05:28:40;;;;;;;4.75;1.60;;;;;;;;;;5040185;28;20044;-70
2023/09/24 05:32:21;;;;;;;3.10;1.30;;;;;;;;;;5043773;28;20037;-70
2023/09/24 05:36:04;;;;;;;9.25;1.40;;;;;;;;;;5045049;28;20513;-69
2023/09/24 05:39:44;;;;;;;6.43;1.92;;;;;;;;;;5036957;28;20124;-68
2023/09/24 05:43:26;;;;;;;3.97;1.30;;;;;;;;;;5040599;28;20105;-70
2023/09/24 05:47:07;;;;;;;3.80;1.45;;;;;;;;;;5037946;28;20639;-69
2023/09/24 05:50:47;;;;;;;3.42;1.15;;;;;;;;;;5040353;28;20056;-70
2023/09/24 05:54:27;;;;;;;4.38;1.80;;;;;;;;;;5038810;28;20049;-70
2023/09/24 05:58:07;;;;;;;3.08;1.50;;;;;;;;;;5034399;28;20060;-69
2023/09/24 06:01:47;;;;;;;4.32;1.90;;;;;;;;;;5040296;28;20053;-70
2023/09/24 06:05:29;;;;;;;2.33;1.50;;;;;;;;;;5047881;28;20037;-72
2023/09/24 06:09:10;;;;;;;4.32;1.73;;;;;;;;;;5035078;28;20041;-71
2023/09/24 06:12:50;;;;;;;5.72;1.90;;;;;;;;;;5033779;28;20047;-70
2023/09/24 06:16:30;;;;;;;6.68;1.80;;;;;;;;;;5030914;28;20053;-70
2023/09/24 06:20:10;;;;;;;5.47;1.58;;;;;;;;;;5031814;28;20235;-70
2023/09/24 06:23:51;;;;;;;4.18;1.88;;;;;;;;;;5034675;28;20044;-69
2023/09/24 06:27:31;;;;;;;2.40;1.60;;;;;;;;;;5031963;28;20033;-70
2023/09/24 06:31:17;;;;;;;5.25;1.45;;;;;;;;;;5036763;28;20385;-69
2023/09/24 06:34:57;;;;;;;6.32;1.52;;;;;;;;;;5032974;28;20585;-70
2023/09/24 06:38:38;;;;;;;2.67;1.42;;;;;;;;;;5032827;28;20049;-69
2023/09/24 06:42:18;;;;;;;3.45;1.60;;;;;;;;;;5032178;28;20119;-70
2023/09/24 06:46:00;;;;;;;4.70;1.70;;;;;;;;;;5031304;28;20570;-71
2023/09/24 06:49:40;;;;;;;5.53;1.52;;;;;;;;;;5029607;28;20055;-70
2023/09/24 06:53:20;;;;;;;9.90;1.50;;;;;;;;;;5043614;28;20457;-71
2023/09/24 06:57:01;;;;;;;5.72;1.70;;;;;;;;;;5042439;28;20068;-70
2023/09/24 07:00:41;;;;;;;5.72;1.80;;;;;;;;;;5038290;28;20038;-71
2023/09/24 07:04:22;;;;;;;4.72;1.73;;;;;;;;;;5035425;28;20456;-69
2023/09/24 07:08:02;;;;;;;3.88;1.58;;;;;;;;;;5045902;28;20085;-72
2023/09/24 07:11:49;;;;;;;5.47;1.75;;;;;;;;;;5040465;28;20052;-70
2023/09/24 07:15:09;;;;;;;;;;;;;;;;;;5040072;28;20037;-73
2023/09/24 07:18:50;;;;;;;4.80;1.77;;;;;;;;;;5037065;28;19921;-70
2023/09/24 07:22:30;;;;;;;8.52;1.92;;;;;;;;;;5032539;28;20049;-71
2023/09/24 07:26:11;;;;;;;3.55;1.80;;;;;;;;;;5032725;28;20125;-71
2023/09/24 07:29:54;;;;;;;3.30;1.60;;;;;;;;;;5042981;28;20075;-73
2023/09/24 07:33:34;;;;;;;5.82;2.10;;;;;;;;;;5039956;28;20052;-73
2023/09/24 07:37:14;;;;;;;8.52;2.20;;;;;;;;;;5030865;28;20053;-73
2023/09/24 07:40:59;;;;;;;4.85;1.88;;;;;;;;;;5036079;28;20052;-71
2023/09/24 07:44:39;;;;;;;6.93;2.40;;;;;;;;;;5040049;28;20033;-72
2023/09/24 07:48:19;;;;;;;6.93;2.20;;;;;;;;;;5043640;28;20346;-70
2023/09/24 07:51:59;;;;;;;11.80;3.25;;;;;;;;;;5038373;28;20124;-73
2023/09/24 07:55:24;;;;;;;5.55;1.75;;;;;;;;;;5037119;28;20443;-71
2023/09/24 07:57:53;;;;;;;7.03;1.63;;;;;;;;;;5054521;28;20136;-71
2023/09/24 08:00:20;;;;;;;3.67;1.70;;;;;;;;;;5040627;28;20057;-70
2023/09/24 08:02:46;;;;;;;5.65;2.20;;;;;;;;;;5038585;28;20064;-73
2023/09/24 08:05:12;;;;;;;5.38;1.60;;;;;;;;;;5045444;28;20432;-72
2023/09/24 08:07:38;;;;;;;7.22;1.98;;;;;;;;;;5042156;28;20523;-72
2023/09/24 08:10:05;;;;;;;4.60;1.80;;;;;;;;;;5040282;28;20057;-70
2023/09/24 08:12:34;;;;;;;8.02;2.20;;;;;;;;;;5033880;28;20385;-72
2023/09/24 08:15:00;;;;;;;8.05;2.60;;;;;;;;;;5032058;28;20080;-71
2023/09/24 08:17:27;;;;;;;7.13;2.25;;;;;;;;;;5045298;28;20106;-71
2023/09/24 08:19:53;;;;;;;4.65;2.13;;;;;;;;;;5041328;28;20567;-70
2023/09/24 08:22:21;;;;;;;5.80;1.98;;;;;;;;;;5045061;28;20528;-73
2023/09/24 08:24:48;;;;;;;9.05;2.22;;;;;;;;;;5038301;28;20808;-74
2023/09/24 08:27:14;;;;;;;5.40;2.25;;;;;;;;;;5049305;28;20068;-69
2023/09/24 08:29:42;;;;;;;8.18;2.30;;;;;;;;;;5045197;28;20095;-70
2023/09/24 08:32:10;;;;;;;8.25;2.65;;;;;;;;;;5037384;28;20057;-70
2023/09/24 08:34:36;;;;;;;9.85;2.63;;;;;;;;;;5043464;28;20041;-70
2023/09/24 08:37:03;;;;;;;5.13;2.28;;;;;;;;;;5031577;28;20140;-70
2023/09/24 08:39:30;;;;;;;5.30;1.83;;;;;;;;;;5038785;28;20661;-70
2023/09/24 08:41:58;;;;;;;4.70;2.38;;;;;;;;;;5038882;28;20045;-71
2023/09/24 08:44:26;;;;;;;4.40;1.95;;;;;;;;;;5024599;28;20060;-74
2023/09/24 08:46:52;;;;;;;4.38;2.10;;;;;;;;;;5038792;28;20060;-70
2023/09/24 08:49:18;;;;;;;5.28;1.77;;;;;;;;;;5045535;28;20186;-73
2023/09/24 08:51:46;;;;;;;5.80;2.03;;;;;;;;;;5041491;28;20067;-73
2023/09/24 08:54:13;;;;;;;3.63;1.77;;;;;;;;;;5047537;28;20053;-71
2023/09/24 08:56:39;;;;;;;3.58;1.70;;;;;;;;;;5044182;28;20405;-71
2023/09/24 08:59:08;;;;;;;6.82;1.60;;;;;;;;;;5034102;28;20052;-73
2023/09/24 09:01:38;;;;;;;4.38;1.67;;;;;;;;;;5041972;28;20053;-73
2023/09/24 09:04:04;;;;;;;6.35;2.08;;;;;;;;;;5047574;28;20159;-71
2023/09/24 09:06:36;;;;;;;9.10;2.20;;;;;;;;;;5044301;28;20083;-72
2023/09/24 09:09:42;;;;;;;8.52;4.60;;;;;;;;;;5026771;28;20052;-72
2023/09/24 09:13:09;;;;;;;3.85;1.75;;;;;;;;;;5031305;28;20087;-71
2023/09/24 09:16:50;;;;;;;6.22;1.92;;;;;;;;;;5036001;28;20056;-76
2023/09/24 09:20:35;;;;;;;4.47;1.67;;;;;;;;;;5044468;28;20063;-73
2023/09/24 09:24:19;;;;;;;6.85;1.48;;;;;;;;;;5050464;28;20037;-72
2023/09/24 09:26:54;;;;;;;3.35;1.48;;;;;;;;;;5038663;28;20050;-76
2023/09/24 09:29:27;;;;;;;3.00;1.42;;;;;;;;;;5038706;28;20056;-77
2023/09/24 09:31:54;;;;;;;4.25;1.60;;;;;;;;;;5042690;28;20072;-75
2023/09/24 09:34:23;;;;;;;3.67;1.65;;;;;;;;;;5053820;28;20132;-74
2023/09/24 09:36:50;;;;;;;6.43;1.73;;;;;;;;;;5042555;28;20075;-75
2023/09/24 09:39:16;;;;;;;2.85;1.45;;;;;;;;;;5042890;28;20050;-75
2023/09/24 09:41:47;;;;;;;4.80;1.90;;;;;;;;;;5039451;28;20379;-77
2023/09/24 09:44:19;;;;;;;5.72;1.60;;;;;;;;;;5036916;28;20060;-77
2023/09/24 09:46:46;;;;;;;5.65;1.50;;;;;;;;;;5042337;28;20049;-75
2023/09/24 09:49:15;;;;;;;6.88;1.40;;;;;;;;;;5046236;28;20072;-76
2023/09/24 09:51:47;;;;;;;3.75;1.67;;;;;;;;;;5047498;28;20045;-74
2023/09/24 09:54:15;;;;;;;2.58;1.50;;;;;;;;;;5044809;28;20047;-76
2023/09/24 09:56:42;;;;;;;5.97;1.58;;;;;;;;;;5049430;28;20048;-74
2023/09/24 09:59:09;;;;;;;4.85;1.50;;;;;;;;;;5044067;28;20092;-76
2023/09/24 10:01:36;;;;;;;5.05;1.73;;;;;;;;;;5039192;28;20622;-74
2023/09/24 10:04:08;;;;;;;6.03;1.65;;;;;;;;;;5030762;28;20045;-75
2023/09/24 10:06:38;;;;;;;5.93;1.35;;;;;;;;;;5042867;28;20052;-74
2023/09/24 10:09:31;;;;;;;4.28;1.67;;;;;;;;;;5042808;28;20049;-79
2023/09/24 10:11:57;;;;;;;4.40;1.40;;;;;;;;;;5033310;28;20072;-75
2023/09/24 10:14:34;;;;;;;6.05;1.77;;;;;;;;;;5041590;28;20049;-78
2023/09/24 10:17:19;;;;;;;4.05;1.55;;;;;;;;;;5035736;28;20040;-77
2023/09/24 10:19:53;;;;;;;3.70;1.70;;;;;;;;;;5027220;28;20277;-75
2023/09/24 10:22:23;;;;;;;;;;;;;;;;;;5038156;28;20060;-74
2023/09/24 10:24:49;;;;;;;5.55;2.35;;;;;;;;;;5044944;28;19920;-75
2023/09/24 10:27:55;;;;;;;2.20;1.35;;;;;;;;;;5042451;28;20061;-76
2023/09/24 10:31:05;;;;;;;3.45;1.30;;;;;;;;;;5041532;28;20154;-76
2023/09/24 10:33:56;;;;;;;2.90;1.38;;;;;;;;;;5038764;28;20490;-76
2023/09/24 10:37:11;;;;;;;3.72;1.33;;;;;;;;;;5040847;28;20072;-76
2023/09/24 10:40:52;;;;;;;5.25;1.85;;;;;;;;;;5044243;28;20412;-75
2023/09/24 10:44:47;;;;;;;4.85;1.70;;;;;;;;;;5047874;28;20109;-76
2023/09/24 10:48:27;;;;;;;4.22;1.50;;;;;;;;;;5038721;28;20437;-74
2023/09/24 10:52:08;;;;;;;5.22;1.70;;;;;;;;;;5040019;28;20060;-76
2023/09/24 10:55:33;;;;;;;7.47;1.83;;;;;;;;;;5045598;28;20951;-74
2023/09/24 10:59:11;;;;;;;4.45;1.50;;;;;;;;;;5040015;28;20095;-76
2023/09/24 11:02:55;;;;;;;4.97;1.73;;;;;;;;;;5044764;28;20481;-76
2023/09/24 11:06:04;;;;;;;4.00;2.05;;;;;;;;;;5042586;28;20056;-75
2023/09/24 11:09:57;;;;;;;8.52;1.65;;;;;;;;;;5037889;28;20059;-74
2023/09/24 11:13:37;;;;;;;5.13;2.10;;;;;;;;;;5030744;28;20128;-77
2023/09/24 11:16:43;;;;;;;3.30;1.52;;;;;;;;;;5034443;28;20046;-75
2023/09/24 11:20:25;;;;;;;4.55;1.50;;;;;;;;;;5041710;28;20045;-74
2023/09/24 11:24:04;;;;;;;4.70;1.65;;;;;;;;;;5035282;28;20053;-74
2023/09/24 11:27:47;;;;;;;6.93;2.78;;;;;;;;;;5046560;28;20416;-76
2023/09/24 11:31:26;;;;;;;2.60;1.70;;;;;;;;;;5034261;28;20392;-74
2023/09/24 11:35:09;;;;;;;7.22;2.30;;;;;;;;;;5045265;28;20129;-76
2023/09/24 11:38:34;;;;;;;5.38;2.10;;;;;;;;;;5047123;28;20091;-75
2023/09/24 11:42:14;;;;;;;7.75;2.22;;;;;;;;;;5038174;28;20612;-75
2023/09/24 11:45:42;;;;;;;8.13;2.30;;;;;;;;;;5038499;28;20359;-75
2023/09/24 11:49:21;;;;;;;5.47;1.83;;;;;;;;;;5037495;28;20455;-70
2023/09/24 11:53:01;;;;;;;5.60;1.67;;;;;;;;;;5037759;28;20135;-70
2023/09/24 11:56:42;;;;;;;5.38;1.60;;;;;;;;;;5037254;28;20037;-73
2023/09/24 12:00:23;;;;;;;5.10;1.77;;;;;;;;;;5031835;28;20037;-76
2023/09/24 12:04:04;;;;;;;5.25;1.83;;;;;;;;;;5031056;28;20057;-76
2023/09/24 12:07:44;;;;;;;5.45;1.70;;;;;;;;;;5047829;28;20429;-71
2023/09/24 12:11:26;;;;;;;5.25;2.00;;;;;;;;;;5048130;28;20040;-71
2023/09/24 12:15:07;;;;;;;4.00;1.50;;;;;;;;;;5034260;28;20121;-71
2023/09/24 12:18:46;;;;;;;3.08;1.50;;;;;;;;;;5044441;28;20094;-74
2023/09/24 12:22:26;;;;;;;5.60;1.75;;;;;;;;;;5042691;28;20511;-72
2023/09/24 12:26:10;;;;;;;6.18;1.92;;;;;;;;;;5043489;28;20056;-74
2023/09/24 12:29:50;;;;;;;3.45;1.77;;;;;;;;;;5040216;28;20075;-73
2023/09/24 12:33:32;;;;;;;5.22;1.58;;;;;;;;;;5038818;28;20044;-73
2023/09/24 12:37:11;;;;;;;3.83;1.73;;;;;;;;;;5045542;28;20049;-72
2023/09/24 12:40:52;;;;;;;4.25;1.85;;;;;;;;;;5038177;28;20053;-74
2023/09/24 12:44:32;;;;;;;5.63;2.00;;;;;;;;;;5045268;28;20041;-77
2023/09/24 12:48:12;;;;;;;7.28;1.75;;;;;;;;;;5037389;28;20429;-72
2023/09/24 12:51:52;;;;;;;5.43;1.67;;;;;;;;;;5041778;28;20049;-72
2023/09/24 12:55:33;;;;;;;2.55;1.42;;;;;;;;;;5036051;28;20118;-69
2023/09/24 12:59:13;;;;;;;5.45;1.70;;;;;;;;;;5038611;28;20103;-70
2023/09/24 13:02:55;;;;;;;6.10;1.80;;;;;;;;;;5038377;28;20048;-69
2023/09/24 13:06:39;;;;;;;3.97;1.80;;;;;;;;;;5041214;28;20076;-69
2023/09/24 13:10:18;;;;;;;6.10;2.30;;;;;;;;;;5036231;28;20053;-69
2023/09/24 13:13:58;;;;;;;4.35;1.80;;;;;;;;;;5041795;28;20127;-70
2023/09/24 13:17:39;;;;;;;3.78;1.65;;;;;;;;;;5033469;28;20151;-69
2023/09/24 13:21:19;;;;;;;4.25;1.83;;;;;;;;;;5039160;28;20059;-71
2023/09/24 13:25:00;;;;;;;13.02;4.85;;;;;;;;;;5023560;28;20864;-72
2023/09/24 13:28:40;;;;;;;5.60;2.30;;;;;;;;;;5037084;28;20053;-70
2023/09/24 13:32:21;;;;;;;4.97;2.25;;;;;;;;;;5028142;28;20051;-71
2023/09/24 13:36:01;;;;;;;7.55;2.95;;;;;;;;;;5026277;28;20052;-69
2023/09/24 13:39:41;;;;;;;5.22;1.80;;;;;;;;;;5039453;28;20044;-71
2023/09/24 13:43:23;;;;;;;7.53;1.65;;;;;;;;;;5042926;28;20053;-70
2023/09/24 13:47:04;;;;;;;5.45;1.42;;;;;;;;;;5036925;28;20148;-69
2023/09/24 13:50:46;;;;;;;3.42;1.40;;;;;;;;;;5029458;28;20051;-72
2023/09/24 13:54:26;;;;;;;4.07;1.55;;;;;;;;;;5035964;28;20497;-70
2023/09/24 13:58:07;;;;;;;5.05;2.00;;;;;;;;;;5034865;28;20053;-73
2023/09/24 14:01:47;;;;;;;6.43;1.38;;;;;;;;;;5038638;28;20250;-72
2023/09/24 14:05:27;;;;;;;3.08;1.40;;;;;;;;;;5034702;28;20052;-72
2023/09/24 14:12:48;;;;;;;3.88;1.50;;;;;;;;;;5022137;28;20079;-71
2023/09/24 14:16:31;;;;;;;3.60;1.17;;;;;;;;;;5032849;28;20131;-73
2023/09/24 14:20:12;;;;;;;7.47;1.83;;;;;;;;;;5030668;28;20270;-70
2023/09/24 14:23:52;;;;;;;3.65;1.52;;;;;;;;;;5036354;28;20413;-70
2023/09/24 14:27:32;;;;;;;3.47;1.42;;;;;;;;;;5044461;28;20044;-72
2023/09/24 14:31:16;;;;;;;3.42;1.77;;;;;;;;;;5022614;28;20042;-69
2023/09/24 14:34:56;;;;;;;6.72;2.25;;;;;;;;;;5042880;28;20087;-69
2023/09/24 14:38:38;;;;;;;6.43;2.10;;;;;;;;;;5037536;28;20077;-70
2023/09/24 14:42:18;;;;;;;3.20;1.48;;;;;;;;;;5035692;28;20222;-72
2023/09/24 14:45:58;;;;;;;4.05;1.63;;;;;;;;;;5038480;28;20540;-70
2023/09/24 14:49:39;;;;;;;3.65;1.40;;;;;;;;;;5034810;28;20051;-72
2023/09/24 14:53:19;;;;;;;3.53;1.38;;;;;;;;;;5039252;28;20354;-73
2023/09/24 14:56:59;;;;;;;5.13;1.20;;;;;;;;;;5040843;28;20052;-73
2023/09/24 15:00:40;;;;;;;4.38;1.30;;;;;;;;;;5025686;28;20492;-77
2023/09/24 15:04:20;;;;;;;3.55;1.40;;;;;;;;;;5021995;28;20604;-72
2023/09/24 15:08:01;;;;;;;3.25;1.45;;;;;;;;;;5034296;28;20041;-73
2023/09/24 15:11:44;;;;;;;4.00;1.10;;;;;;;;;;5042140;28;20049;-73
2023/09/24 15:15:25;;;;;;;3.17;1.20;;;;;;;;;;5043187;28;20041;-72
2023/09/24 15:19:05;;;;;;;2.97;1.35;;;;;;;;;;5034760;28;20132;-73
2023/09/24 15:22:47;;;;;;;2.90;1.48;;;;;;;;;;5031403;28;20049;-74
2023/09/24 15:26:27;;;;;;;3.70;1.30;;;;;;;;;;5037978;28;20143;-72
2023/09/24 15:30:08;;;;;;;3.35;1.20;;;;;;;;;;5039864;28;20097;-74
2023/09/24 15:33:50;;;;;;;3.65;1.30;;;;;;;;;;5040385;28;20053;-73
2023/09/24 15:37:31;;;;;;;2.95;1.52;;;;;;;;;;5044828;28;20547;-72
2023/09/24 15:41:14;;;;;;;3.45;1.40;;;;;;;;;;5024867;28;20053;-72
2023/09/24 15:44:54;;;;;;;8.65;1.50;;;;;;;;;;5040685;28;20416;-72
2023/09/24 15:48:34;;;;;;;4.93;1.20;;;;;;;;;;5024992;28;20151;-72
2023/09/24 15:52:15;;;;;;;3.67;1.42;;;;;;;;;;5023447;28;20119;-71
2023/09/24 15:55:56;;;;;;;5.20;1.42;;;;;;;;;;5038793;28;20092;-73
2023/09/24 15:59:36;;;;;;;3.08;1.20;;;;;;;;;;5041574;28;20045;-70
2023/09/24 16:03:17;;;;;;;2.35;1.02;;;;;;;;;;5026122;28;20322;-73
2023/09/24 16:06:58;;;;;;;3.15;1.40;;;;;;;;;;5026883;28;20151;-75
2023/09/24 16:10:39;;;;;;;4.55;1.58;;;;;;;;;;5047800;28;20079;-74
2023/09/24 16:14:19;;;;;;;5.07;1.60;;;;;;;;;;5043937;28;20344;-72
2023/09/24 16:18:00;;;;;;;4.18;1.50;;;;;;;;;;5035229;28;20401;-73
2023/09/24 16:21:40;;;;;;;3.38;1.50;;;;;;;;;;5044636;28;20044;-72
2023/09/24 16:25:20;;;;;;;2.15;1.05;;;;;;;;;;5040529;28;20094;-73
2023/09/24 16:29:01;;;;;;;4.25;1.80;;;;;;;;;;5045208;28;20148;-72
2023/09/24 16:32:43;;;;;;;3.85;1.20;;;;;;;;;;5041000;28;20056;-72
2023/09/24 16:36:23;;;;;;;7.13;1.52;;;;;;;;;;5051007;28;20037;-69
2023/09/24 16:40:03;;;;;;;4.40;1.30;;;;;;;;;;5036119;28;20041;-70
2023/09/24 16:43:44;;;;;;;2.83;1.27;;;;;;;;;;5048007;28;20381;-73
2023/09/24 16:47:25;;;;;;;3.15;1.40;;;;;;;;;;5040497;28;20045;-71
2023/09/24 16:51:06;;;;;;;4.13;1.20;;;;;;;;;;5043328;28;20041;-71
2023/09/24 16:54:46;;;;;;;4.88;1.33;;;;;;;;;;5038516;28;20133;-72
2023/09/24 16:58:26;;;;;;;3.58;1.30;;;;;;;;;;5033335;28;20111;-75
2023/09/24 17:02:08;;;;;;;2.83;1.13;;;;;;;;;;5046405;28;20053;-71
2023/09/24 17:05:52;;;;;;;4.20;1.38;;;;;;;;;;5033338;28;20125;-73
2023/09/24 17:09:33;;;;;;;1.92;1.10;;;;;;;;;;5024943;28;20080;-72
2023/09/24 17:13:14;;;;;;;4.72;1.48;;;;;;;;;;5038443;28;20490;-72
2023/09/24 17:16:56;;;;;;;4.35;1.48;;;;;;;;;;5039874;28;20068;-73
2023/09/24 17:20:36;;;;;;;6.00;2.10;;;;;;;;;;5042926;28;20354;-71
2023/09/24 17:24:20;;;;;;;8.52;1.70;;;;;;;;;;5038125;28;20045;-78
2023/09/24 17:27:56;;;;;;;6.63;1.75;;;;;;;;;;5039084;28;20045;-70
2023/09/24 17:31:38;;;;;;;2.85;1.48;;;;;;;;;;5036623;28;20065;-78
2023/09/24 17:35:17;;;;;;;6.38;1.67;;;;;;;;;;5056718;28;20029;-76
2023/09/24 17:38:57;;;;;;;5.40;1.80;;;;;;;;;;5061809;28;20052;-82
2023/09/24 17:42:37;;;;;;;9.40;1.80;;;;;;;;;;5048928;28;20057;-80
2023/09/24 17:46:23;;;;;;;3.88;1.30;;;;;;;;;;5035383;28;20049;-77
2023/09/24 17:49:58;;;;;;;3.25;1.35;;;;;;;;;;5104312;22;20088;-81
2023/09/24 17:56:46;;;;;;;5.72;1.13;;;;;;;;;;5507077;23;20072;-79
2023/09/24 18:00:28;;;;;;;4.22;1.70;;;;;;;;;;5892973;22;21015;-79
2023/09/24 18:04:08;;;;;;;5.07;1.85;;;;;;;;;;5162883;23;20048;-82
2023/09/24 18:11:06;;;;;;;6.68;1.58;;;;;;;;;;5001176;28;20037;-82
2023/09/24 18:17:53;;;;;;;6.50;1.58;;;;;;;;;;5371231;22;20536;-80
2023/09/24 18:21:48;;;;;;;4.00;1.42;;;;;;;;;;5029596;28;20068;-79
2023/09/24 18:25:29;;;;;;;5.22;1.52;;;;;;;;;;5164958;22;20039;-83
2023/09/24 18:40:27;;;;;;;5.43;1.70;;;;;;;;;;5134662;23;20057;-77
2023/09/24 18:44:11;;;;;;;4.80;1.45;;;;;;;;;;5021086;28;20057;-77
2023/09/24 18:47:52;;;;;;;11.27;1.60;;;;;;;;;;5026065;28;20101;-78
2023/09/24 18:51:32;;;;;;;6.95;1.88;;;;;;;;;;5021014;28;20040;-79
2023/09/24 18:55:13;;;;;;;6.15;1.30;;;;;;;;;;5025404;28;20049;-75
2023/09/24 18:58:53;;;;;;;4.30;1.63;;;;;;;;;;5021262;28;20556;-78
2023/09/24 19:02:33;;;;;;;4.40;1.50;;;;;;;;;;5021351;28;20123;-76
2023/09/24 19:06:14;;;;;;;5.07;1.60;;;;;;;;;;5011930;28;20128;-74
2023/09/24 19:09:54;;;;;;;5.75;1.55;;;;;;;;;;5014345;28;20176;-76
2023/09/24 19:13:35;;;;;;;3.70;1.33;;;;;;;;;;5020171;28;20109;-77
2023/09/24 19:17:19;;;;;;;5.93;1.70;;;;;;;;;;5013056;28;20049;-75
2023/09/24 19:21:01;;;;;;;6.20;1.58;;;;;;;;;;5028058;28;20049;-80
2023/09/24 19:24:01;;;;;;;3.83;1.33;;;;;;;;;;5021449;28;24826;-79
2023/09/24 19:26:32;;;;;;;7.50;1.60;;;;;;;;;;5027739;28;20133;-78
2023/09/24 19:28:59;;;;;;;5.82;1.50;;;;;;;;;;5031903;28;20069;-78
2023/09/24 19:31:26;;;;;;;12.82;1.75;;;;;;;;;;5030992;28;20050;-77
2023/09/24 19:33:53;;;;;;;8.38;1.50;;;;;;;;;;4999730;28;20053;-76
2023/09/24 19:36:22;;;;;;;6.70;1.80;;;;;;;;;;5017347;28;20061;-76
2023/09/24 19:38:51;;;;;;;3.42;1.45;;;;;;;;;;5017718;28;20154;-80
2023/09/24 19:41:18;;;;;;;4.60;1.50;;;;;;;;;;5037116;28;20058;-79
2023/09/24 19:43:44;;;;;;;3.95;1.60;;;;;;;;;;5063978;23;20076;-81
2023/09/24 19:46:11;;;;;;;5.07;1.60;;;;;;;;;;5048420;28;20129;-78
2023/09/24 19:48:39;;;;;;;6.63;1.77;;;;;;;;;;5022793;28;20049;-77
2023/09/24 19:51:07;;;;;;;5.35;1.52;;;;;;;;;;5041558;28;20057;-78
2023/09/24 19:53:36;;;;;;;6.65;1.98;;;;;;;;;;5037815;28;20053;-82
2023/09/24 19:56:03;;;;;;;6.53;1.73;;;;;;;;;;5038374;28;20073;-78
2023/09/24 19:58:30;;;;;;;9.43;1.83;;;;;;;;;;5027124;28;20279;-82
2023/09/24 20:01:01;;;;;;;4.05;1.60;;;;;;;;;;5041978;28;20079;-82
2023/09/24 20:03:28;;;;;;;3.22;1.38;;;;;;;;;;5047355;28;20055;-82
2023/09/24 20:05:56;;;;;;;3.55;1.70;;;;;;;;;;5047268;28;20060;-81
2023/09/24 20:08:32;;;;;;;3.15;1.67;;;;;;;;;;5044376;28;20358;-82
2023/09/24 20:11:05;;;;;;;5.55;2.25;;;;;;;;;;5036788;28;20057;-82
2023/09/24 20:13:38;;;;;;;5.85;1.73;;;;;;;;;;5026139;28;20077;-80
2023/09/24 20:16:04;;;;;;;6.57;2.28;;;;;;;;;;5039590;28;20120;-81
2023/09/24 20:18:32;;;;;;;7.20;1.77;;;;;;;;;;4983659;28;20405;-71
2023/09/24 20:21:00;;;;;;;3.33;1.67;;;;;;;;;;5019854;28;20562;-71
2023/09/24 20:23:32;;;;;;;6.05;1.90;;;;;;;;;;5005789;28;20228;-72
2023/09/24 20:26:00;;;;;;;4.00;1.60;;;;;;;;;;5014501;28;20532;-70
2023/09/24 20:28:26;;;;;;;5.63;1.60;;;;;;;;;;4998908;28;20524;-71
2023/09/24 20:30:57;;;;;;;4.75;1.85;;;;;;;;;;5007605;28;20116;-72
2023/09/24 20:33:24;;;;;;;5.85;1.65;;;;;;;;;;5012090;28;20061;-73
2023/09/24 20:35:51;;;;;;;4.47;1.33;;;;;;;;;;5017481;28;20049;-73
2023/09/24 20:38:22;;;;;;;3.70;1.50;;;;;;;;;;5000973;28;20050;-70
2023/09/24 20:41:00;;;;;;;4.65;1.23;;;;;;;;;;5019437;28;20065;-72